sensor_id;sensor_type;location;lat;lon;timestamp;P1;durP1;ratioP1;P2;durP2;ratioP2
9214;SDS011;4642;51.364;6.788;2022-12-16T00:00:19;30.90;;;14.77;;
9214;SDS011;4642;51.364;6.788;2022-12-16T00:02:45;22.93;;;11.93;;
9214;SDS011;4642;51.364;6.788;2022-12-16T00:05:10;29.87;;;13.63;;
9214;SDS011;4642;51.364;6.788;2022-12-16T00:07:36;27.97;;;14.63;;
9214;SDS011;4642;51.364;6.788;2022-12-16T00:10:01;24.67;;;13.43;;
9214;SDS011;4642;51.364;6.788;2022-12-16T00:12:27;33.47;;;13.30;;
9214;SDS011;4642;51.364;6.788;2022-12-16T00:14:53;23.27;;;12.70;;
9214;SDS011;4642;51.364;6.788;2022-12-16T00:17:19;30.30;;;13.60;;
9214;SDS011;4642;51.364;6.788;2022-12-16T00:19:44;24.57;;;13.43;;
9214;SDS011;4642;51.364;6.788;2022-12-16T00:22:10;25.23;;;13.07;;
9214;SDS011;4642;51.364;6.788;2022-12-16T00:24:35;25.47;;;12.23;;
9214;SDS011;4642;51.364;6.788;2022-12-16T00:27:01;28.87;;;13.93;;
9214;SDS011;4642;51.364;6.788;2022-12-16T00:29:27;27.30;;;12.70;;
9214;SDS011;4642;51.364;6.788;2022-12-16T00:31:52;26.47;;;13.30;;
9214;SDS011;4642;51.364;6.788;2022-12-16T00:34:18;24.67;;;12.30;;
9214;SDS011;4642;51.364;6.788;2022-12-16T00:36:43;25.07;;;12.93;;
9214;SDS011;4642;51.364;6.788;2022-12-16T00:39:09;27.53;;;12.50;;
9214;SDS011;4642;51.364;6.788;2022-12-16T00:41:35;25.17;;;12.53;;
9214;SDS011;4642;51.364;6.788;2022-12-16T00:44:01;30.53;;;14.40;;
9214;SDS011;4642;51.364;6.788;2022-12-16T00:46:27;27.20;;;12.53;;
9214;SDS011;4642;51.364;6.788;2022-12-16T00:48:52;27.63;;;13.20;;
9214;SDS011;4642;51.364;6.788;2022-12-16T00:51:18;30.27;;;13.70;;
9214;SDS011;4642;51.364;6.788;2022-12-16T00:53:44;24.40;;;13.33;;
9214;SDS011;4642;51.364;6.788;2022-12-16T00:56:11;26.60;;;13.83;;
9214;SDS011;4642;51.364;6.788;2022-12-16T00:58:42;24.77;;;12.67;;
9214;SDS011;4642;51.364;6.788;2022-12-16T01:01:08;24.37;;;12.70;;
9214;SDS011;4642;51.364;6.788;2022-12-16T01:03:34;20.87;;;11.80;;
9214;SDS011;4642;51.364;6.788;2022-12-16T01:06:00;27.03;;;13.43;;
9214;SDS011;4642;51.364;6.788;2022-12-16T01:08:30;25.23;;;12.50;;
9214;SDS011;4642;51.364;6.788;2022-12-16T01:10:56;27.20;;;13.67;;
9214;SDS011;4642;51.364;6.788;2022-12-16T01:13:22;22.43;;;13.27;;
9214;SDS011;4642;51.364;6.788;2022-12-16T01:15:49;23.63;;;12.37;;
9214;SDS011;4642;51.364;6.788;2022-12-16T01:18:14;29.20;;;13.40;;
9214;SDS011;4642;51.364;6.788;2022-12-16T01:20:40;21.83;;;11.60;;
9214;SDS011;4642;51.364;6.788;2022-12-16T01:23:06;27.00;;;12.73;;
9214;SDS011;4642;51.364;6.788;2022-12-16T01:25:32;26.30;;;12.77;;
9214;SDS011;4642;51.364;6.788;2022-12-16T01:27:58;31.93;;;13.70;;
9214;SDS011;4642;51.364;6.788;2022-12-16T01:30:23;30.30;;;13.30;;
9214;SDS011;4642;51.364;6.788;2022-12-16T01:32:49;24.97;;;12.57;;
9214;SDS011;4642;51.364;6.788;2022-12-16T01:35:15;28.40;;;13.90;;
9214;SDS011;4642;51.364;6.788;2022-12-16T01:37:41;28.90;;;12.37;;
9214;SDS011;4642;51.364;6.788;2022-12-16T01:40:07;22.47;;;11.30;;
9214;SDS011;4642;51.364;6.788;2022-12-16T01:42:43;22.97;;;12.77;;
9214;SDS011;4642;51.364;6.788;2022-12-16T01:45:27;26.43;;;12.33;;
9214;SDS011;4642;51.364;6.788;2022-12-16T01:47:53;23.13;;;12.37;;
9214;SDS011;4642;51.364;6.788;2022-12-16T01:50:22;25.40;;;13.33;;
9214;SDS011;4642;51.364;6.788;2022-12-16T01:52:52;21.77;;;11.47;;
9214;SDS011;4642;51.364;6.788;2022-12-16T01:55:34;27.57;;;12.87;;
9214;SDS011;4642;51.364;6.788;2022-12-16T01:58:11;24.37;;;12.67;;
9214;SDS011;4642;51.364;6.788;2022-12-16T02:00:42;21.47;;;11.47;;
9214;SDS011;4642;51.364;6.788;2022-12-16T02:03:08;27.23;;;13.20;;
9214;SDS011;4642;51.364;6.788;2022-12-16T02:05:35;29.33;;;13.53;;
9214;SDS011;4642;51.364;6.788;2022-12-16T02:13:12;23.57;;;11.17;;
9214;SDS011;4642;51.364;6.788;2022-12-16T02:16:00;26.63;;;13.00;;
9214;SDS011;4642;51.364;6.788;2022-12-16T02:27:00;25.83;;;12.07;;
9214;SDS011;4642;51.364;6.788;2022-12-16T02:32:20;20.63;;;11.50;;
9214;SDS011;4642;51.364;6.788;2022-12-16T02:34:58;23.20;;;11.93;;
9214;SDS011;4642;51.364;6.788;2022-12-16T02:42:58;26.80;;;13.30;;
9214;SDS011;4642;51.364;6.788;2022-12-16T02:45:28;25.53;;;11.57;;
9214;SDS011;4642;51.364;6.788;2022-12-16T02:47:56;24.47;;;11.73;;
9214;SDS011;4642;51.364;6.788;2022-12-16T02:50:22;26.37;;;13.03;;
9214;SDS011;4642;51.364;6.788;2022-12-16T02:52:58;26.97;;;12.87;;
9214;SDS011;4642;51.364;6.788;2022-12-16T02:55:28;22.53;;;12.20;;
9214;SDS011;4642;51.364;6.788;2022-12-16T02:58:07;21.73;;;12.13;;
9214;SDS011;4642;51.364;6.788;2022-12-16T03:00:44;25.57;;;11.83;;
9214;SDS011;4642;51.364;6.788;2022-12-16T03:03:42;21.77;;;12.27;;
9214;SDS011;4642;51.364;6.788;2022-12-16T03:06:12;24.87;;;12.07;;
9214;SDS011;4642;51.364;6.788;2022-12-16T03:08:41;21.67;;;12.07;;
9214;SDS011;4642;51.364;6.788;2022-12-16T03:11:12;23.77;;;11.40;;
9214;SDS011;4642;51.364;6.788;2022-12-16T03:13:41;28.73;;;13.47;;
9214;SDS011;4642;51.364;6.788;2022-12-16T03:16:13;23.60;;;11.37;;
9214;SDS011;4642;51.364;6.788;2022-12-16T03:18:41;25.53;;;12.97;;
9214;SDS011;4642;51.364;6.788;2022-12-16T03:21:08;23.73;;;11.93;;
9214;SDS011;4642;51.364;6.788;2022-12-16T03:23:44;17.43;;;10.40;;
9214;SDS011;4642;51.364;6.788;2022-12-16T03:26:17;22.33;;;11.23;;
9214;SDS011;4642;51.364;6.788;2022-12-16T03:29:05;20.33;;;10.27;;
9214;SDS011;4642;51.364;6.788;2022-12-16T03:34:42;20.57;;;10.73;;
9214;SDS011;4642;51.364;6.788;2022-12-16T03:37:18;26.27;;;11.10;;
9214;SDS011;4642;51.364;6.788;2022-12-16T03:39:48;21.77;;;10.70;;
9214;SDS011;4642;51.364;6.788;2022-12-16T03:42:16;37.40;;;11.70;;
9214;SDS011;4642;51.364;6.788;2022-12-16T03:44:42;17.30;;;11.43;;
9214;SDS011;4642;51.364;6.788;2022-12-16T03:47:09;20.77;;;10.93;;
9214;SDS011;4642;51.364;6.788;2022-12-16T03:49:35;24.80;;;11.40;;
9214;SDS011;4642;51.364;6.788;2022-12-16T03:52:00;24.90;;;13.53;;
9214;SDS011;4642;51.364;6.788;2022-12-16T03:54:26;23.37;;;11.87;;
9214;SDS011;4642;51.364;6.788;2022-12-16T03:56:52;26.30;;;11.93;;
9214;SDS011;4642;51.364;6.788;2022-12-16T03:59:18;23.90;;;12.77;;
9214;SDS011;4642;51.364;6.788;2022-12-16T04:01:44;24.30;;;11.57;;
9214;SDS011;4642;51.364;6.788;2022-12-16T04:04:09;17.23;;;10.73;;
9214;SDS011;4642;51.364;6.788;2022-12-16T04:06:35;20.50;;;10.83;;
9214;SDS011;4642;51.364;6.788;2022-12-16T04:09:00;21.17;;;11.63;;
9214;SDS011;4642;51.364;6.788;2022-12-16T04:11:26;26.37;;;11.13;;
9214;SDS011;4642;51.364;6.788;2022-12-16T04:14:10;22.50;;;11.10;;
9214;SDS011;4642;51.364;6.788;2022-12-16T04:16:54;24.93;;;11.10;;
9214;SDS011;4642;51.364;6.788;2022-12-16T04:19:39;19.27;;;10.40;;
9214;SDS011;4642;51.364;6.788;2022-12-16T04:25:21;23.03;;;10.10;;
9214;SDS011;4642;51.364;6.788;2022-12-16T04:27:48;20.20;;;10.27;;
9214;SDS011;4642;51.364;6.788;2022-12-16T04:30:17;20.07;;;9.43;;
9214;SDS011;4642;51.364;6.788;2022-12-16T04:32:45;19.23;;;10.53;;
9214;SDS011;4642;51.364;6.788;2022-12-16T04:35:31;23.17;;;10.90;;
9214;SDS011;4642;51.364;6.788;2022-12-16T04:38:15;17.83;;;10.13;;
9214;SDS011;4642;51.364;6.788;2022-12-16T04:40:59;21.23;;;10.57;;
9214;SDS011;4642;51.364;6.788;2022-12-16T04:43:43;22.57;;;10.97;;
9214;SDS011;4642;51.364;6.788;2022-12-16T04:46:27;26.70;;;12.40;;
9214;SDS011;4642;51.364;6.788;2022-12-16T04:49:11;21.20;;;11.53;;
9214;SDS011;4642;51.364;6.788;2022-12-16T04:51:55;19.50;;;11.57;;
9214;SDS011;4642;51.364;6.788;2022-12-16T04:54:39;23.33;;;10.30;;
9214;SDS011;4642;51.364;6.788;2022-12-16T04:57:23;23.00;;;11.47;;
9214;SDS011;4642;51.364;6.788;2022-12-16T05:00:07;24.07;;;11.33;;
9214;SDS011;4642;51.364;6.788;2022-12-16T05:02:52;22.43;;;11.13;;
9214;SDS011;4642;51.364;6.788;2022-12-16T05:05:36;24.80;;;11.90;;
9214;SDS011;4642;51.364;6.788;2022-12-16T05:08:20;29.37;;;13.33;;
9214;SDS011;4642;51.364;6.788;2022-12-16T05:11:04;21.03;;;9.77;;
9214;SDS011;4642;51.364;6.788;2022-12-16T05:13:48;24.03;;;12.33;;
9214;SDS011;4642;51.364;6.788;2022-12-16T05:16:32;19.47;;;10.37;;
9214;SDS011;4642;51.364;6.788;2022-12-16T05:19:16;20.73;;;11.43;;
9214;SDS011;4642;51.364;6.788;2022-12-16T05:22:00;19.80;;;10.93;;
9214;SDS011;4642;51.364;6.788;2022-12-16T05:24:44;22.40;;;11.53;;
9214;SDS011;4642;51.364;6.788;2022-12-16T05:27:29;22.80;;;11.73;;
9214;SDS011;4642;51.364;6.788;2022-12-16T05:30:14;23.10;;;10.67;;
9214;SDS011;4642;51.364;6.788;2022-12-16T05:32:58;21.03;;;11.13;;
9214;SDS011;4642;51.364;6.788;2022-12-16T05:35:42;22.63;;;11.87;;
9214;SDS011;4642;51.364;6.788;2022-12-16T05:38:26;20.33;;;10.23;;
9214;SDS011;4642;51.364;6.788;2022-12-16T05:41:10;23.13;;;13.53;;
9214;SDS011;4642;51.364;6.788;2022-12-16T05:43:54;25.83;;;12.07;;
9214;SDS011;4642;51.364;6.788;2022-12-16T05:46:38;19.80;;;10.83;;
9214;SDS011;4642;51.364;6.788;2022-12-16T05:49:22;16.20;;;9.37;;
9214;SDS011;4642;51.364;6.788;2022-12-16T05:52:06;20.20;;;10.77;;
9214;SDS011;4642;51.364;6.788;2022-12-16T05:54:50;19.37;;;10.30;;
9214;SDS011;4642;51.364;6.788;2022-12-16T05:57:34;24.77;;;12.07;;
9214;SDS011;4642;51.364;6.788;2022-12-16T06:00:18;26.23;;;11.77;;
9214;SDS011;4642;51.364;6.788;2022-12-16T06:03:02;24.23;;;12.03;;
9214;SDS011;4642;51.364;6.788;2022-12-16T06:05:46;23.27;;;10.33;;
9214;SDS011;4642;51.364;6.788;2022-12-16T06:08:30;23.77;;;10.77;;
9214;SDS011;4642;51.364;6.788;2022-12-16T06:11:15;20.20;;;10.07;;
9214;SDS011;4642;51.364;6.788;2022-12-16T06:13:59;20.27;;;10.00;;
9214;SDS011;4642;51.364;6.788;2022-12-16T06:17:03;18.17;;;9.07;;
9214;SDS011;4642;51.364;6.788;2022-12-16T06:19:47;24.43;;;11.40;;
9214;SDS011;4642;51.364;6.788;2022-12-16T06:22:42;20.43;;;11.27;;
9214;SDS011;4642;51.364;6.788;2022-12-16T06:25:26;23.07;;;10.80;;
9214;SDS011;4642;51.364;6.788;2022-12-16T06:28:11;18.67;;;10.77;;
9214;SDS011;4642;51.364;6.788;2022-12-16T06:30:55;19.30;;;8.93;;
9214;SDS011;4642;51.364;6.788;2022-12-16T06:33:40;20.00;;;9.93;;
9214;SDS011;4642;51.364;6.788;2022-12-16T06:36:24;16.40;;;9.50;;
9214;SDS011;4642;51.364;6.788;2022-12-16T06:39:08;22.03;;;10.07;;
9214;SDS011;4642;51.364;6.788;2022-12-16T06:41:52;18.67;;;9.70;;
9214;SDS011;4642;51.364;6.788;2022-12-16T06:44:36;17.63;;;10.53;;
9214;SDS011;4642;51.364;6.788;2022-12-16T06:47:20;20.20;;;10.40;;
9214;SDS011;4642;51.364;6.788;2022-12-16T06:50:04;23.07;;;10.83;;
9214;SDS011;4642;51.364;6.788;2022-12-16T06:52:48;20.47;;;10.77;;
9214;SDS011;4642;51.364;6.788;2022-12-16T06:55:32;18.87;;;10.13;;
9214;SDS011;4642;51.364;6.788;2022-12-16T06:58:16;19.80;;;10.00;;
9214;SDS011;4642;51.364;6.788;2022-12-16T07:01:00;20.70;;;10.27;;
9214;SDS011;4642;51.364;6.788;2022-12-16T07:03:44;22.10;;;11.23;;
9214;SDS011;4642;51.364;6.788;2022-12-16T07:06:28;21.67;;;10.17;;
9214;SDS011;4642;51.364;6.788;2022-12-16T07:09:12;19.50;;;9.37;;
9214;SDS011;4642;51.364;6.788;2022-12-16T07:11:56;23.60;;;10.53;;
9214;SDS011;4642;51.364;6.788;2022-12-16T07:14:40;22.27;;;11.77;;
9214;SDS011;4642;51.364;6.788;2022-12-16T07:17:24;18.80;;;9.80;;
9214;SDS011;4642;51.364;6.788;2022-12-16T07:20:08;17.50;;;10.77;;
9214;SDS011;4642;51.364;6.788;2022-12-16T07:22:52;19.97;;;11.07;;
9214;SDS011;4642;51.364;6.788;2022-12-16T07:25:36;23.47;;;11.67;;
9214;SDS011;4642;51.364;6.788;2022-12-16T07:28:20;22.47;;;10.83;;
9214;SDS011;4642;51.364;6.788;2022-12-16T07:31:04;22.57;;;10.87;;
9214;SDS011;4642;51.364;6.788;2022-12-16T07:33:48;25.43;;;12.10;;
9214;SDS011;4642;51.364;6.788;2022-12-16T07:36:32;24.30;;;10.00;;
9214;SDS011;4642;51.364;6.788;2022-12-16T07:39:16;23.00;;;11.07;;
9214;SDS011;4642;51.364;6.788;2022-12-16T07:42:00;23.30;;;11.13;;
9214;SDS011;4642;51.364;6.788;2022-12-16T07:44:44;25.17;;;11.40;;
9214;SDS011;4642;51.364;6.788;2022-12-16T07:47:28;23.67;;;10.20;;
9214;SDS011;4642;51.364;6.788;2022-12-16T07:50:12;23.17;;;11.07;;
9214;SDS011;4642;51.364;6.788;2022-12-16T07:52:57;23.23;;;11.57;;
9214;SDS011;4642;51.364;6.788;2022-12-16T07:55:42;28.70;;;12.00;;
9214;SDS011;4642;51.364;6.788;2022-12-16T07:58:27;20.73;;;11.73;;
9214;SDS011;4642;51.364;6.788;2022-12-16T08:01:11;19.90;;;11.73;;
9214;SDS011;4642;51.364;6.788;2022-12-16T08:03:55;25.57;;;12.27;;
9214;SDS011;4642;51.364;6.788;2022-12-16T08:06:40;28.47;;;12.57;;
9214;SDS011;4642;51.364;6.788;2022-12-16T08:09:24;19.40;;;11.33;;
9214;SDS011;4642;51.364;6.788;2022-12-16T08:12:08;22.60;;;11.30;;
9214;SDS011;4642;51.364;6.788;2022-12-16T08:14:52;22.23;;;12.60;;
9214;SDS011;4642;51.364;6.788;2022-12-16T08:17:36;27.67;;;12.90;;
9214;SDS011;4642;51.364;6.788;2022-12-16T08:20:20;24.13;;;11.90;;
9214;SDS011;4642;51.364;6.788;2022-12-16T08:23:04;26.73;;;13.37;;
9214;SDS011;4642;51.364;6.788;2022-12-16T08:25:48;26.77;;;11.93;;
9214;SDS011;4642;51.364;6.788;2022-12-16T08:28:32;23.37;;;11.87;;
9214;SDS011;4642;51.364;6.788;2022-12-16T08:31:17;27.80;;;13.90;;
9214;SDS011;4642;51.364;6.788;2022-12-16T08:34:00;26.33;;;13.90;;
9214;SDS011;4642;51.364;6.788;2022-12-16T08:36:45;27.47;;;15.13;;
9214;SDS011;4642;51.364;6.788;2022-12-16T08:39:29;26.23;;;13.07;;
9214;SDS011;4642;51.364;6.788;2022-12-16T08:42:13;29.23;;;14.37;;
9214;SDS011;4642;51.364;6.788;2022-12-16T08:44:57;32.57;;;16.47;;
9214;SDS011;4642;51.364;6.788;2022-12-16T08:47:41;31.30;;;19.23;;
9214;SDS011;4642;51.364;6.788;2022-12-16T08:50:25;33.23;;;17.60;;
9214;SDS011;4642;51.364;6.788;2022-12-16T08:53:09;34.43;;;16.67;;
9214;SDS011;4642;51.364;6.788;2022-12-16T08:55:53;32.50;;;17.43;;
9214;SDS011;4642;51.364;6.788;2022-12-16T08:58:37;35.50;;;17.77;;
9214;SDS011;4642;51.364;6.788;2022-12-16T09:01:21;29.93;;;18.17;;
9214;SDS011;4642;51.364;6.788;2022-12-16T09:04:05;34.13;;;17.83;;
9214;SDS011;4642;51.364;6.788;2022-12-16T09:06:49;30.83;;;16.23;;
9214;SDS011;4642;51.364;6.788;2022-12-16T09:09:35;34.70;;;16.10;;
9214;SDS011;4642;51.364;6.788;2022-12-16T09:12:19;33.70;;;16.70;;
9214;SDS011;4642;51.364;6.788;2022-12-16T09:15:04;32.47;;;17.43;;
9214;SDS011;4642;51.364;6.788;2022-12-16T09:17:54;33.77;;;16.10;;
9214;SDS011;4642;51.364;6.788;2022-12-16T09:20:38;32.63;;;15.70;;
9214;SDS011;4642;51.364;6.788;2022-12-16T09:23:22;27.53;;;15.50;;
9214;SDS011;4642;51.364;6.788;2022-12-16T09:26:07;25.77;;;14.97;;
9214;SDS011;4642;51.364;6.788;2022-12-16T09:28:51;27.27;;;15.83;;
9214;SDS011;4642;51.364;6.788;2022-12-16T09:31:35;32.03;;;16.13;;
9214;SDS011;4642;51.364;6.788;2022-12-16T09:34:19;32.30;;;17.50;;
9214;SDS011;4642;51.364;6.788;2022-12-16T09:37:03;34.70;;;16.67;;
9214;SDS011;4642;51.364;6.788;2022-12-16T09:39:47;34.10;;;16.50;;
9214;SDS011;4642;51.364;6.788;2022-12-16T09:51:27;34.47;;;17.40;;
9214;SDS011;4642;51.364;6.788;2022-12-16T09:54:13;34.27;;;17.77;;
9214;SDS011;4642;51.364;6.788;2022-12-16T09:57:00;39.67;;;18.80;;
9214;SDS011;4642;51.364;6.788;2022-12-16T09:59:48;41.47;;;19.27;;
9214;SDS011;4642;51.364;6.788;2022-12-16T10:02:43;42.10;;;19.10;;
9214;SDS011;4642;51.364;6.788;2022-12-16T10:05:36;37.20;;;18.87;;
9214;SDS011;4642;51.364;6.788;2022-12-16T10:11:25;39.77;;;19.40;;
9214;SDS011;4642;51.364;6.788;2022-12-16T10:14:24;42.70;;;19.53;;
9214;SDS011;4642;51.364;6.788;2022-12-16T10:17:16;38.57;;;19.97;;
9214;SDS011;4642;51.364;6.788;2022-12-16T10:23:29;48.53;;;21.83;;
9214;SDS011;4642;51.364;6.788;2022-12-16T10:29:35;43.20;;;23.20;;
9214;SDS011;4642;51.364;6.788;2022-12-16T10:32:25;48.03;;;23.50;;
9214;SDS011;4642;51.364;6.788;2022-12-16T10:35:21;40.90;;;21.57;;
9214;SDS011;4642;51.364;6.788;2022-12-16T10:38:19;45.53;;;22.63;;
9214;SDS011;4642;51.364;6.788;2022-12-16T10:41:25;44.87;;;21.60;;
9214;SDS011;4642;51.364;6.788;2022-12-16T10:47:27;50.50;;;23.60;;
9214;SDS011;4642;51.364;6.788;2022-12-16T10:50:12;49.90;;;23.10;;
9214;SDS011;4642;51.364;6.788;2022-12-16T10:52:58;49.83;;;25.53;;
9214;SDS011;4642;51.364;6.788;2022-12-16T10:59:07;53.20;;;25.03;;
9214;SDS011;4642;51.364;6.788;2022-12-16T11:01:56;51.13;;;26.70;;
9214;SDS011;4642;51.364;6.788;2022-12-16T11:04:46;59.57;;;26.60;;
9214;SDS011;4642;51.364;6.788;2022-12-16T11:07:33;64.20;;;25.97;;
9214;SDS011;4642;51.364;6.788;2022-12-16T11:10:36;52.53;;;25.90;;
9214;SDS011;4642;51.364;6.788;2022-12-16T11:16:06;63.57;;;27.93;;
9214;SDS011;4642;51.364;6.788;2022-12-16T11:18:53;65.43;;;27.43;;
9214;SDS011;4642;51.364;6.788;2022-12-16T11:21:37;64.27;;;26.93;;
9214;SDS011;4642;51.364;6.788;2022-12-16T11:24:21;59.77;;;27.73;;
9214;SDS011;4642;51.364;6.788;2022-12-16T11:27:13;71.77;;;29.20;;
9214;SDS011;4642;51.364;6.788;2022-12-16T11:30:03;62.00;;;28.80;;
9214;SDS011;4642;51.364;6.788;2022-12-16T11:33:03;61.07;;;27.87;;
9214;SDS011;4642;51.364;6.788;2022-12-16T11:36:13;60.17;;;25.63;;
9214;SDS011;4642;51.364;6.788;2022-12-16T11:39:00;66.63;;;28.33;;
9214;SDS011;4642;51.364;6.788;2022-12-16T11:41:47;74.63;;;31.57;;
9214;SDS011;4642;51.364;6.788;2022-12-16T11:44:51;61.20;;;28.63;;
9214;SDS011;4642;51.364;6.788;2022-12-16T11:47:40;68.53;;;28.13;;
9214;SDS011;4642;51.364;6.788;2022-12-16T11:50:29;64.83;;;27.97;;
9214;SDS011;4642;51.364;6.788;2022-12-16T11:56:23;59.27;;;30.03;;
9214;SDS011;4642;51.364;6.788;2022-12-16T12:02:12;66.33;;;29.93;;
9214;SDS011;4642;51.364;6.788;2022-12-16T12:05:11;76.30;;;32.63;;
9214;SDS011;4642;51.364;6.788;2022-12-16T12:07:58;77.00;;;31.57;;
9214;SDS011;4642;51.364;6.788;2022-12-16T12:14:03;76.07;;;31.67;;
9214;SDS011;4642;51.364;6.788;2022-12-16T12:19:50;93.13;;;35.60;;
9214;SDS011;4642;51.364;6.788;2022-12-16T12:22:43;83.17;;;33.97;;
9214;SDS011;4642;51.364;6.788;2022-12-16T12:28:34;84.00;;;35.17;;
9214;SDS011;4642;51.364;6.788;2022-12-16T12:31:32;92.23;;;35.53;;
9214;SDS011;4642;51.364;6.788;2022-12-16T12:34:24;89.93;;;37.40;;
9214;SDS011;4642;51.364;6.788;2022-12-16T12:37:23;85.97;;;34.57;;
9214;SDS011;4642;51.364;6.788;2022-12-16T12:43:38;82.17;;;36.77;;
9214;SDS011;4642;51.364;6.788;2022-12-16T12:46:56;87.23;;;35.90;;
9214;SDS011;4642;51.364;6.788;2022-12-16T12:49:44;80.10;;;33.70;;
9214;SDS011;4642;51.364;6.788;2022-12-16T12:59:05;87.53;;;35.03;;
9214;SDS011;4642;51.364;6.788;2022-12-16T13:01:59;80.30;;;32.00;;
9214;SDS011;4642;51.364;6.788;2022-12-16T13:04:46;69.57;;;31.47;;
9214;SDS011;4642;51.364;6.788;2022-12-16T13:07:32;68.00;;;28.33;;
9214;SDS011;4642;51.364;6.788;2022-12-16T13:16:02;80.30;;;34.17;;
9214;SDS011;4642;51.364;6.788;2022-12-16T13:18:47;78.27;;;34.93;;
9214;SDS011;4642;51.364;6.788;2022-12-16T13:21:51;82.37;;;32.33;;
9214;SDS011;4642;51.364;6.788;2022-12-16T13:24:47;81.27;;;32.90;;
9214;SDS011;4642;51.364;6.788;2022-12-16T13:27:44;86.67;;;35.60;;
9214;SDS011;4642;51.364;6.788;2022-12-16T13:30:30;84.30;;;33.90;;
9214;SDS011;4642;51.364;6.788;2022-12-16T13:33:20;87.13;;;33.63;;
9214;SDS011;4642;51.364;6.788;2022-12-16T13:36:07;90.03;;;33.63;;
9214;SDS011;4642;51.364;6.788;2022-12-16T13:38:54;78.60;;;32.67;;
9214;SDS011;4642;51.364;6.788;2022-12-16T13:50:39;75.73;;;30.73;;
9214;SDS011;4642;51.364;6.788;2022-12-16T13:53:33;66.03;;;28.50;;
9214;SDS011;4642;51.364;6.788;2022-12-16T13:56:32;75.63;;;31.37;;
9214;SDS011;4642;51.364;6.788;2022-12-16T13:59:23;75.37;;;29.10;;
9214;SDS011;4642;51.364;6.788;2022-12-16T14:02:23;75.67;;;29.33;;
9214;SDS011;4642;51.364;6.788;2022-12-16T14:05:28;76.07;;;28.90;;
9214;SDS011;4642;51.364;6.788;2022-12-16T14:08:21;90.47;;;32.97;;
9214;SDS011;4642;51.364;6.788;2022-12-16T14:11:13;87.77;;;33.87;;
9214;SDS011;4642;51.364;6.788;2022-12-16T14:14:05;77.70;;;32.30;;
9214;SDS011;4642;51.364;6.788;2022-12-16T14:17:26;82.93;;;33.53;;
9214;SDS011;4642;51.364;6.788;2022-12-16T14:20:29;94.50;;;33.43;;
9214;SDS011;4642;51.364;6.788;2022-12-16T14:26:26;83.87;;;32.27;;
9214;SDS011;4642;51.364;6.788;2022-12-16T14:29:14;86.10;;;32.83;;
9214;SDS011;4642;51.364;6.788;2022-12-16T14:35:16;80.00;;;32.90;;
9214;SDS011;4642;51.364;6.788;2022-12-16T14:41:20;92.30;;;35.00;;
9214;SDS011;4642;51.364;6.788;2022-12-16T14:44:14;77.77;;;31.50;;
9214;SDS011;4642;51.364;6.788;2022-12-16T14:47:16;77.63;;;31.00;;
9214;SDS011;4642;51.364;6.788;2022-12-16T14:50:02;76.33;;;31.90;;
9214;SDS011;4642;51.364;6.788;2022-12-16T14:53:05;83.47;;;32.60;;
9214;SDS011;4642;51.364;6.788;2022-12-16T14:56:16;95.57;;;34.90;;
9214;SDS011;4642;51.364;6.788;2022-12-16T15:01:54;93.13;;;34.30;;
9214;SDS011;4642;51.364;6.788;2022-12-16T15:04:43;86.87;;;35.47;;
9214;SDS011;4642;51.364;6.788;2022-12-16T15:07:27;91.53;;;33.90;;
9214;SDS011;4642;51.364;6.788;2022-12-16T15:10:19;93.03;;;33.73;;
9214;SDS011;4642;51.364;6.788;2022-12-16T15:13:17;87.10;;;31.93;;
9214;SDS011;4642;51.364;6.788;2022-12-16T15:16:02;90.80;;;35.60;;
9214;SDS011;4642;51.364;6.788;2022-12-16T15:18:48;91.43;;;33.13;;
9214;SDS011;4642;51.364;6.788;2022-12-16T15:21:41;91.47;;;36.70;;
9214;SDS011;4642;51.364;6.788;2022-12-16T15:24:26;95.77;;;35.20;;
9214;SDS011;4642;51.364;6.788;2022-12-16T15:33:27;86.53;;;33.83;;
9214;SDS011;4642;51.364;6.788;2022-12-16T15:36:17;90.20;;;33.17;;
9214;SDS011;4642;51.364;6.788;2022-12-16T15:39:21;95.50;;;32.57;;
9214;SDS011;4642;51.364;6.788;2022-12-16T15:42:25;92.80;;;33.20;;
9214;SDS011;4642;51.364;6.788;2022-12-16T15:45:15;94.10;;;33.90;;
9214;SDS011;4642;51.364;6.788;2022-12-16T15:54:13;106.60;;;34.63;;
9214;SDS011;4642;51.364;6.788;2022-12-16T15:57:02;99.43;;;34.20;;
9214;SDS011;4642;51.364;6.788;2022-12-16T16:00:16;93.60;;;32.50;;
9214;SDS011;4642;51.364;6.788;2022-12-16T16:06:11;88.03;;;29.30;;
9214;SDS011;4642;51.364;6.788;2022-12-16T16:09:12;84.57;;;30.30;;
9214;SDS011;4642;51.364;6.788;2022-12-16T16:11:58;87.93;;;30.47;;
9214;SDS011;4642;51.364;6.788;2022-12-16T16:14:41;83.00;;;31.70;;
9214;SDS011;4642;51.364;6.788;2022-12-16T16:17:26;89.77;;;32.00;;
9214;SDS011;4642;51.364;6.788;2022-12-16T16:20:14;110.53;;;34.37;;
9214;SDS011;4642;51.364;6.788;2022-12-16T16:22:59;90.50;;;31.67;;
9214;SDS011;4642;51.364;6.788;2022-12-16T16:25:44;93.33;;;33.10;;
9214;SDS011;4642;51.364;6.788;2022-12-16T16:28:30;91.53;;;33.13;;
9214;SDS011;4642;51.364;6.788;2022-12-16T16:31:14;82.13;;;29.50;;
9214;SDS011;4642;51.364;6.788;2022-12-16T16:33:58;88.13;;;31.17;;
9214;SDS011;4642;51.364;6.788;2022-12-16T16:36:42;99.57;;;32.83;;
9214;SDS011;4642;51.364;6.788;2022-12-16T16:39:26;102.23;;;34.83;;
9214;SDS011;4642;51.364;6.788;2022-12-16T16:42:10;94.33;;;32.90;;
9214;SDS011;4642;51.364;6.788;2022-12-16T16:44:54;96.00;;;33.93;;
9214;SDS011;4642;51.364;6.788;2022-12-16T16:47:38;91.93;;;33.03;;
9214;SDS011;4642;51.364;6.788;2022-12-16T16:50:22;91.70;;;30.63;;
9214;SDS011;4642;51.364;6.788;2022-12-16T16:53:10;104.00;;;33.37;;
9214;SDS011;4642;51.364;6.788;2022-12-16T16:55:57;100.20;;;33.67;;
9214;SDS011;4642;51.364;6.788;2022-12-16T16:58:42;107.87;;;33.17;;
9214;SDS011;4642;51.364;6.788;2022-12-16T17:01:26;96.73;;;33.27;;
9214;SDS011;4642;51.364;6.788;2022-12-16T17:04:10;91.53;;;34.87;;
9214;SDS011;4642;51.364;6.788;2022-12-16T17:06:54;112.00;;;35.97;;
9214;SDS011;4642;51.364;6.788;2022-12-16T17:09:38;127.97;;;37.70;;
9214;SDS011;4642;51.364;6.788;2022-12-16T17:12:23;108.70;;;37.93;;
9214;SDS011;4642;51.364;6.788;2022-12-16T17:15:13;118.47;;;37.60;;
9214;SDS011;4642;51.364;6.788;2022-12-16T17:18:08;129.47;;;41.60;;
9214;SDS011;4642;51.364;6.788;2022-12-16T17:20:53;126.83;;;38.47;;
9214;SDS011;4642;51.364;6.788;2022-12-16T17:23:37;116.60;;;36.53;;
9214;SDS011;4642;51.364;6.788;2022-12-16T17:26:22;127.00;;;39.30;;
9214;SDS011;4642;51.364;6.788;2022-12-16T17:29:17;129.20;;;42.57;;
9214;SDS011;4642;51.364;6.788;2022-12-16T17:32:06;126.10;;;39.13;;
9214;SDS011;4642;51.364;6.788;2022-12-16T17:34:50;121.03;;;42.07;;
9214;SDS011;4642;51.364;6.788;2022-12-16T17:37:34;137.90;;;46.10;;
9214;SDS011;4642;51.364;6.788;2022-12-16T17:40:19;125.40;;;45.20;;
9214;SDS011;4642;51.364;6.788;2022-12-16T17:43:03;146.83;;;47.27;;
9214;SDS011;4642;51.364;6.788;2022-12-16T17:45:54;159.43;;;49.80;;
9214;SDS011;4642;51.364;6.788;2022-12-16T17:48:39;150.83;;;46.90;;
9214;SDS011;4642;51.364;6.788;2022-12-16T17:51:24;143.90;;;44.93;;
9214;SDS011;4642;51.364;6.788;2022-12-16T17:54:08;140.60;;;45.47;;
9214;SDS011;4642;51.364;6.788;2022-12-16T17:56:52;140.87;;;45.83;;
9214;SDS011;4642;51.364;6.788;2022-12-16T17:59:36;146.17;;;47.83;;
9214;SDS011;4642;51.364;6.788;2022-12-16T18:02:20;132.43;;;46.30;;
9214;SDS011;4642;51.364;6.788;2022-12-16T18:05:04;133.47;;;42.30;;
9214;SDS011;4642;51.364;6.788;2022-12-16T18:07:48;121.73;;;42.40;;
9214;SDS011;4642;51.364;6.788;2022-12-16T18:10:32;129.53;;;44.77;;
9214;SDS011;4642;51.364;6.788;2022-12-16T18:13:16;120.77;;;43.20;;
9214;SDS011;4642;51.364;6.788;2022-12-16T18:16:00;130.87;;;42.57;;
9214;SDS011;4642;51.364;6.788;2022-12-16T18:18:47;119.30;;;42.57;;
9214;SDS011;4642;51.364;6.788;2022-12-16T18:21:32;132.53;;;42.90;;
9214;SDS011;4642;51.364;6.788;2022-12-16T18:24:16;124.43;;;38.93;;